Arlington, Illinois
Current Conditions -  °F | °C
As of 7:35 AM on Saturday 20 Dec 2014 (Local Time) from KVYS Reporting Station
Haze Haze  
Wind Chill: -2°   Ceiling: 4900
Heat Index: -2°   Visibility: 5mi
Dew Point: -3°   Wind: 0mph
Humidity: 90%   Direction: NA
Pressure: 30.28"   Gusts: NA
Location:  41.47°N, 89.25°W
Report Text: KVYS 201335Z AUTO 00000KT 5SM BR OVC049 M02/M03 A3028 RMK AO2 T10161030
Loading
Personal Weather Stations






























Interactive Weather Map New forecast layout! Learn more

10-Day Weather Forecast

Advertisements
Track Severe Weather on mobile